Flight Track Log - Related Links

Times and Time Zones

All times are in EDT time to prevent confusion due to time zone crossing. See the SWA1969 flight status page for this flight to view local times or setup timezone preferences in your user account.

Time Position Orientation Groundspeed Altitude Reporting Facility
EDT Latitude Longitude Course Direction KTS MPH feet Rate Location/Type
Tue 01:21:18 PM 41.7500 -87.8167 270° West 185 213 2,700  Level Chicago TRACON
Tue 01:22:18 PM 41.7500 -87.9000 270° West 231 266 5,400 2,283 Climbing Chicago TRACON
Tue 01:22:50 PM 41.7583 -87.9300 290° West 233 268 6,200 2,645 Climbing Chicago Center
Tue 01:23:51 PM 41.7847 -88.0181 292° West 251 289 9,500 2,829 Climbing Chicago Center
Tue 01:24:53 PM 41.7847 -88.1247 270° West 240 276 12,000 2,129 Climbing Chicago Center
Tue 01:25:55 PM 41.7831 -88.2153 269° West 245 282 13,900 1,122 Climbing Chicago Center
Tue 01:26:56 PM 41.7689 -88.3058 258° West 251 289 14,300 1,073 Climbing Chicago Center
Tue 01:27:58 PM 41.7511 -88.4036 256° West 270 311 16,100 1,984 Climbing Chicago Center
Tue 01:29:00 PM 41.7314 -88.5086 256° West 290 334 18,400 2,371 Climbing Chicago Center
Tue 01:30:02 PM 41.7081 -88.6375 256° West 300 345 21,000 2,274 Climbing Chicago Center
Tue 01:31:04 PM 41.6858 -88.7464 255° West 305 351 23,100 1,805 Climbing Chicago Center
Tue 01:32:05 PM 41.6631 -88.8597 255° West 313 360 24,700 976 Climbing Chicago Center
Tue 01:33:07 PM 41.6381 -88.9797 254° West 331 381 25,100 919 Climbing Chicago Center
Tue 01:34:09 PM 41.6142 -89.1158 257° West 372 428 26,600 1,210 Climbing Chicago Center
Tue 01:35:11 PM 41.5875 -89.2775 258° West 377 434 27,600 919 Climbing Chicago Center
Tue 01:36:13 PM 41.5569 -89.4233 254° West 401 461 28,500 1,016 Climbing Chicago Center
Tue 01:37:15 PM 41.5322 -89.5586 256° West 405 466 29,700 1,220 Climbing Chicago Center
Tue 01:38:16 PM 41.5036 -89.7064 256° West 412 474 31,000 1,220 Climbing Chicago Center
Tue 01:39:18 PM 41.4764 -89.8500 256° West 405 466 32,200 1,306 Climbing Chicago Center
Tue 01:40:20 PM 41.4436 -90.0219 256° West 403 464 33,700 871 Climbing Chicago Center
Tue 01:41:22 PM 41.4156 -90.1639 255° West 399 459 34,000 146 Climbing Chicago Center
Tue 01:42:23 PM 41.3878 -90.3050 255° West 398 458 34,000  Level Chicago Center
Tue 01:43:25 PM 41.3606 -90.4456 256° West 396 456 34,000  Level Chicago Center
Tue 01:44:27 PM 41.3325 -90.5869 255° West 396 456 34,000  Level Chicago Center
Tue 01:45:29 PM 41.2958 -90.7256 251° West 397 457 34,000 341 Level Chicago Center
Tue 01:46:30 PM 41.2483 -90.8856 248° West 391 450 34,700 829 Climbing Chicago Center
Tue 01:47:32 PM 41.2094 -91.0169 249° West 385 443 35,700 629 Climbing Chicago Center
Tue 01:48:34 PM 41.1706 -91.1483 249° West 384 442 36,000 145 Climbing Chicago Center
Tue 01:49:36 PM 41.1314 -91.2825 249° West 389 448 36,000  Level Chicago Center
Tue 01:50:37 PM 41.0903 -91.4158 248° West 390 449 36,000  Level Chicago Center
Tue 01:51:39 PM 41.0506 -91.5489 248° West 390 449 36,000  Level Chicago Center
Tue 01:52:41 PM 41.0047 -91.6961 248° West 388 447 36,000  Level Chicago Center
Tue 01:53:42 PM 40.9650 -91.8281 248° West 388 447 36,000  Level Chicago Center
Tue 01:54:44 PM 40.9250 -91.9572 248° West 386 444 36,000  Level Chicago Center
Tue 01:55:46 PM 40.8853 -92.0872 248° West 384 442 36,000  Level Chicago Center
Tue 01:56:48 PM 40.8375 -92.2403 248° West 380 437 36,000  Level Chicago Center
Tue 01:57:49 PM 40.7983 -92.3681 248° West 380 437 36,000  Level Chicago Center
Tue 01:58:51 PM 40.7586 -92.4950 248° West 379 436 36,000  Level Chicago Center
Tue 01:59:53 PM 40.7192 -92.6214 248° West 378 435 36,000  Level Chicago Center
Tue 02:00:55 PM 40.6792 -92.7475 247° West 379 436 36,000  Level Chicago Center
Tue 02:01:56 PM 40.6308 -92.8986 247° West 379 436 36,000  Level Chicago Center
Tue 02:02:35 PM 40.6056 -92.9739 246° West 379 436 36,000  Level Kansas City Center
Tue 02:03:39 PM 40.5667 -93.0981 248° West 374 430 36,000  Level Kansas City Center
Tue 02:04:39 PM 40.5267 -93.2233 247° West 376 433 36,000  Level Kansas City Center
Tue 02:05:43 PM 40.4853 -93.3489 247° West 378 435 36,000  Level Kansas City Center
Tue 02:06:44 PM 40.4375 -93.5006 248° West 378 435 36,000  Level Kansas City Center
Tue 02:07:47 PM 40.3953 -93.6256 246° West 378 435 36,000  Level Kansas City Center
Tue 02:08:48 PM 40.3536 -93.7508 246° West 378 435 36,000  Level Kansas City Center
Tue 02:09:49 PM 40.3119 -93.8781 247° West 381 438 36,000  Level Kansas City Center
Tue 02:10:52 PM 40.2700 -94.0042 246° West 382 440 36,000  Level Kansas City Center
Tue 02:11:53 PM 40.2247 -94.1467 247° West 380 437 36,000  Level Kansas City Center
Tue 02:12:53 PM 40.1706 -94.2575 237° Southwest 381 438 36,000  Level Kansas City Center
Tue 02:13:57 PM 40.0983 -94.3794 232° Southwest 379 436 36,000  Level Kansas City Center
Tue 02:14:57 PM 40.0367 -94.4844 233° Southwest 380 437 36,000  Level Kansas City Center
Tue 02:15:58 PM 39.9636 -94.6061 232° Southwest 381 438 36,000  Level Kansas City Center
Tue 02:17:02 PM 39.9017 -94.7103 232° Southwest 382 440 36,000  Level Kansas City Center
Tue 02:18:04 PM 39.8294 -94.8331 233° Southwest 381 438 36,000  Level Kansas City Center
Tue 02:19:04 PM 39.7661 -94.9361 231° Southwest 383 441 36,000  Level Kansas City Center
Tue 02:20:05 PM 39.7039 -95.0403 232° Southwest 382 440 36,000  Level Kansas City Center
Tue 02:21:09 PM 39.6317 -95.1600 232° Southwest 379 436 36,000  Level Kansas City Center
Tue 02:22:10 PM 39.5689 -95.2639 232° Southwest 383 441 36,000  Level Kansas City Center
Tue 02:23:11 PM 39.4922 -95.3886 231° Southwest 382 440 36,000  Level Kansas City Center
Tue 02:24:12 PM 39.4325 -95.4861 232° Southwest 384 442 36,000  Level Kansas City Center
Tue 02:25:14 PM 39.3589 -95.6067 232° Southwest 385 443 36,000  Level Kansas City Center
Tue 02:26:17 PM 39.2944 -95.7097 231° Southwest 388 447 36,000  Level Kansas City Center
Tue 02:27:18 PM 39.2197 -95.8306 231° Southwest 389 448 36,000  Level Kansas City Center
Tue 02:28:21 PM 39.1553 -95.9342 231° Southwest 388 447 36,000  Level Kansas City Center
Tue 02:29:22 PM 39.0808 -96.0544 231° Southwest 387 445 36,000  Level Kansas City Center
Tue 02:30:23 PM 39.0161 -96.1569 231° Southwest 386 444 36,000  Level Kansas City Center
Tue 02:31:24 PM 38.9369 -96.2764 230° Southwest 391 450 36,000  Level Kansas City Center
Tue 02:32:28 PM 38.8744 -96.3814 233° Southwest 389 448 36,000  Level Kansas City Center
Tue 02:33:28 PM 38.8050 -96.4883 230° Southwest 387 445 36,000  Level Kansas City Center
Tue 02:34:32 PM 38.7372 -96.5967 231° Southwest 389 448 36,000  Level Kansas City Center
Tue 02:35:32 PM 38.6692 -96.7075 232° Southwest 388 447 36,000  Level Kansas City Center
Tue 02:36:33 PM 38.5889 -96.8347 231° Southwest 390 449 36,000  Level Kansas City Center
Tue 02:37:37 PM 38.5208 -96.9408 231° Southwest 390 449 36,000  Level Kansas City Center
Tue 02:38:38 PM 38.4522 -97.0481 231° Southwest 389 448 36,000  Level Kansas City Center
Tue 02:39:39 PM 38.3833 -97.1556 231° Southwest 391 450 36,000  Level Kansas City Center
Tue 02:40:41 PM 38.3131 -97.2636 230° Southwest 395 455 36,000  Level Kansas City Center
Tue 02:41:42 PM 38.2433 -97.3717 231° Southwest 395 455 36,000  Level Kansas City Center
Tue 02:42:46 PM 38.1608 -97.4944 230° Southwest 395 455 36,000  Level Kansas City Center
Tue 02:43:47 PM 38.0883 -97.6064 231° Southwest 393 452 36,000  Level Kansas City Center
Tue 02:44:48 PM 38.0189 -97.7119 230° Southwest 391 450 36,000  Level Kansas City Center
Tue 02:45:51 PM 37.9461 -97.8239 231° Southwest 390 449 36,000  Level Kansas City Center
Tue 02:46:52 PM 37.8756 -97.9292 230° Southwest 390 449 36,000  Level Kansas City Center
Tue 02:47:53 PM 37.8050 -98.0369 230° Southwest 394 453 36,000  Level Kansas City Center
Tue 02:48:57 PM 37.7325 -98.1469 230° Southwest 394 453 36,000  Level Kansas City Center
Tue 02:49:58 PM 37.6611 -98.2550 230° Southwest 399 459 36,000  Level Kansas City Center
Tue 02:50:59 PM 37.5886 -98.3631 230° Southwest 403 464 36,000  Level Kansas City Center
Tue 02:52:00 PM 37.5167 -98.4706 230° Southwest 402 463 36,000  Level Kansas City Center
Tue 02:53:03 PM 37.4450 -98.5764 230° Southwest 398 458 36,000  Level Kansas City Center
Tue 02:54:04 PM 37.3731 -98.6822 229° Southwest 397 457 36,000  Level Kansas City Center
Tue 02:55:06 PM 37.3014 -98.7883 230° Southwest 398 458 36,000  Level Kansas City Center
Tue 02:56:07 PM 37.2144 -98.9142 229° Southwest 397 457 36,000  Level Kansas City Center
Tue 02:57:10 PM 37.1425 -99.0192 229° Southwest 397 457 36,000  Level Kansas City Center
Tue 02:58:11 PM 37.0722 -99.1233 230° Southwest 397 457 36,000  Level Kansas City Center
Tue 02:59:12 PM 36.9994 -99.2292 229° Southwest 400 460 36,000  Level Kansas City Center
Tue 03:00:16 PM 36.9267 -99.3344 229° Southwest 400 460 36,000  Level Kansas City Center
Tue 03:01:17 PM 36.8531 -99.4400 229° Southwest 401 461 36,000  Level Kansas City Center
Tue 03:02:18 PM 36.7656 -99.5658 229° Southwest 401 461 36,000  Level Kansas City Center
Tue 03:03:19 PM 36.6928 -99.6708 229° Southwest 401 461 36,000  Level Kansas City Center
Tue 03:04:22 PM 36.6200 -99.7747 229° Southwest 399 459 36,000  Level Kansas City Center
Tue 03:05:23 PM 36.5475 -99.8794 229° Southwest 399 459 36,000  Level Kansas City Center
Tue 03:06:25 PM 36.4747 -99.9822 229° Southwest 399 459 36,000  Level Kansas City Center
Tue 03:07:26 PM 36.4022 -100.0850 229° Southwest 397 457 36,000  Level Kansas City Center
Tue 03:08:28 PM 36.3289 -100.1889 229° Southwest 398 458 36,000  Level Kansas City Center
Tue 03:09:31 PM 36.2417 -100.3117 229° Southwest 397 457 36,000  Level Kansas City Center
Tue 03:10:32 PM 36.1683 -100.4133 228° Southwest 396 456 36,000  Level Kansas City Center
Tue 03:11:36 PM 36.0950 -100.5167 229° Southwest 398 458 36,000  Level Kansas City Center
Tue 03:12:36 PM 36.0211 -100.6197 228° Southwest 399 459 36,000  Level Kansas City Center
Tue 03:13:38 PM 35.9531 -100.7481 237° Southwest 405 466 36,000  Level Kansas City Center
Tue 03:14:39 PM 35.9417 -100.8908 264° West 421 484 36,000  Level Kansas City Center
Tue 03:15:41 PM 35.9294 -101.0308 264° West 416 479 36,000  Level Kansas City Center
Tue 03:16:44 PM 35.9178 -101.1728 264° West 417 480 36,000  Level Kansas City Center
Tue 03:17:45 PM 35.9072 -101.3117 265° West 412 474 36,000  Level Kansas City Center
Tue 03:18:49 PM 35.8947 -101.4500 264° West 410 472 36,000  Level Kansas City Center
Tue 03:19:49 PM 35.8797 -101.6108 263° West 402 463 36,000  Level Kansas City Center
Tue 03:21:02 PM 35.8656 -101.7686 264° West 395 455 36,000  Level Albuquerque Center
Tue 03:22:03 PM 35.8544 -101.9014 264° West 392 451 36,000  Level Albuquerque Center
Tue 03:23:05 PM 35.8422 -102.0358 264° West 397 457 36,000  Level Albuquerque Center
Tue 03:24:07 PM 35.8297 -102.1683 263° West 393 452 36,000  Level Albuquerque Center
Tue 03:25:09 PM 35.8147 -102.3267 263° West 391 450 36,000  Level Albuquerque Center
Tue 03:26:10 PM 35.8011 -102.4578 263° West 389 448 36,000  Level Albuquerque Center
Tue 03:27:12 PM 35.7889 -102.5886 263° West 387 445 36,000  Level Albuquerque Center
Tue 03:28:14 PM 35.7764 -102.7217 263° West 391 450 36,000  Level Albuquerque Center
Tue 03:29:16 PM 35.7625 -102.8539 263° West 391 450 36,000  Level Albuquerque Center
Tue 03:30:18 PM 35.7481 -103.0011 263° West 388 447 36,000  Level Albuquerque Center
Tue 03:31:19 PM 35.7358 -103.1339 264° West 389 448 36,000  Level Albuquerque Center
Tue 03:32:21 PM 35.7208 -103.2658 262° West 387 445 36,000  Level Albuquerque Center
Tue 03:33:23 PM 35.7078 -103.3964 263° West 384 442 36,000  Level Albuquerque Center
Tue 03:34:25 PM 35.6944 -103.5269 263° West 383 441 36,000  Level Albuquerque Center
Tue 03:35:27 PM 35.6797 -103.6589 262° West 386 444 36,000  Level Albuquerque Center
Tue 03:36:29 PM 35.6636 -103.8131 263° West 388 447 36,000  Level Albuquerque Center
Tue 03:37:30 PM 35.6492 -103.9439 262° West 387 445 36,000  Level Albuquerque Center
Tue 03:38:32 PM 35.6361 -104.0750 263° West 386 444 36,000  Level Albuquerque Center
Tue 03:39:34 PM 35.6206 -104.2069 262° West 388 447 36,000  Level Albuquerque Center
Tue 03:40:36 PM 35.6061 -104.3392 262° West 390 449 36,000  Level Albuquerque Center
Tue 03:41:38 PM 35.5908 -104.4694 262° West 387 445 36,000  Level Albuquerque Center
Tue 03:42:40 PM 35.5733 -104.6239 262° West 390 449 36,000  Level Albuquerque Center
Tue 03:43:41 PM 35.5578 -104.7561 262° West 390 449 36,000  Level Albuquerque Center
Tue 03:44:43 PM 35.5422 -104.8872 262° West 388 447 36,000  Level Albuquerque Center
Tue 03:45:45 PM 35.5269 -105.0217 262° West 393 452 36,000  Level Albuquerque Center
Tue 03:46:47 PM 35.5103 -105.1544 261° West 392 451 36,000  Level Albuquerque Center
Tue 03:47:49 PM 35.4950 -105.2878 262° West 391 450 36,000  Level Albuquerque Center
Tue 03:48:50 PM 35.4781 -105.4211 261° West 392 451 36,000  Level Albuquerque Center
Tue 03:49:52 PM 35.4619 -105.5567 262° West 397 457 36,000  Level Albuquerque Center
Tue 03:50:54 PM 35.4419 -105.7131 261° West 396 456 36,000  Level Albuquerque Center
Tue 03:51:55 PM 35.4261 -105.8436 262° West 387 445 36,000  Level Albuquerque Center
Tue 03:52:57 PM 35.4117 -105.9569 261° West 380 437 36,000  Level Albuquerque Center
Tue 03:53:59 PM 35.3972 -106.0836 262° West 377 434 36,000  Level Albuquerque Center
Tue 03:55:01 PM 35.3814 -106.2122 261° West 380 437 36,000  Level Albuquerque Center
Tue 03:56:02 PM 35.3608 -106.3656 261° West 381 438 36,000  Level Albuquerque Center
Tue 03:57:04 PM 35.3436 -106.4961 261° West 387 445 36,000  Level Albuquerque Center
Tue 03:58:06 PM 35.3275 -106.6422 262° West 399 459 36,000  Level Albuquerque Center
Tue 03:59:07 PM 35.3097 -106.7681 260° West 394 453 36,000  Level Albuquerque Center
Tue 04:00:09 PM 35.2903 -106.8967 260° West 399 459 36,000  Level Albuquerque Center
Tue 04:01:11 PM 35.2706 -107.0450 261° West 396 456 36,000  Level Albuquerque Center
Tue 04:02:12 PM 35.2522 -107.1819 261° West 396 456 36,000  Level Albuquerque Center
Tue 04:03:14 PM 35.2294 -107.3144 258° West 400 460 36,000  Level Albuquerque Center
Tue 04:04:16 PM 35.2033 -107.4428 256° West 393 452 36,000 -532 Level Albuquerque Center
Tue 04:05:18 PM 35.1733 -107.5886 256° West 389 448 34,900 -976 Descending Albuquerque Center
Tue 04:06:19 PM 35.1519 -107.7119 258° West 387 445 34,000 -439 Descending Albuquerque Center
Tue 04:07:21 PM 35.1272 -107.8383 257° West 395 455 34,000  Level Albuquerque Center
Tue 04:08:23 PM 35.0972 -107.9867 256° West 400 460 34,000  Level Albuquerque Center
Tue 04:09:25 PM 35.0714 -108.1133 256° West 400 460 34,000  Level Albuquerque Center
Tue 04:10:26 PM 35.0425 -108.2578 256° West 395 455 34,000  Level Albuquerque Center
Tue 04:11:28 PM 35.0181 -108.3822 257° West 393 452 34,000  Level Albuquerque Center
Tue 04:12:30 PM 34.9889 -108.5281 256° West 395 455 34,000  Level Albuquerque Center
Tue 04:13:32 PM 34.9633 -108.6508 256° West 392 451 34,000  Level Albuquerque Center
Tue 04:14:33 PM 34.9381 -108.7736 256° West 390 449 34,000  Level Albuquerque Center
Tue 04:15:35 PM 34.9086 -108.9169 256° West 389 448 34,000  Level Albuquerque Center
Tue 04:16:37 PM 34.8839 -109.0397 256° West 390 449 34,000  Level Albuquerque Center
Tue 04:17:39 PM 34.8542 -109.1814 256° West 387 445 34,000  Level Albuquerque Center
Tue 04:18:41 PM 34.8281 -109.3036 255° West 389 448 34,000  Level Albuquerque Center
Tue 04:19:42 PM 34.7978 -109.4478 256° West 392 451 34,000  Level Albuquerque Center
Tue 04:20:44 PM 34.7703 -109.5694 255° West 391 450 34,000  Level Albuquerque Center
Tue 04:21:46 PM 34.7442 -109.6917 255° West 390 449 34,000  Level Albuquerque Center
Tue 04:22:48 PM 34.7133 -109.8342 255° West 391 450 34,000  Level Albuquerque Center
Tue 04:23:49 PM 34.6725 -109.9531 247° West 398 458 34,000  Level Albuquerque Center
Tue 04:24:51 PM 34.6222 -110.0864 245° Southwest 392 451 34,000  Level Albuquerque Center
Tue 04:25:53 PM 34.5831 -110.2108 249° West 405 466 34,000  Level Albuquerque Center
Tue 04:26:55 PM 34.5286 -110.3389 243° Southwest 390 449 34,000 -488 Level Albuquerque Center
Tue 04:27:56 PM 34.4906 -110.4453 247° West 392 451 33,000 -1,415 Descending Albuquerque Center
Tue 04:28:58 PM 34.4492 -110.5622 247° West 385 443 31,100 -2,129 Descending Albuquerque Center
Tue 04:30:00 PM 34.3981 -110.6933 245° Southwest 365 420 28,600 -2,195 Descending Albuquerque Center
Tue 04:31:01 PM 34.3508 -110.7989 242° Southwest 360 414 26,600 -1,951 Descending Albuquerque Center
Tue 04:32:03 PM 34.2875 -110.8806 227° Southwest 338 389 24,600 -1,839 Descending Albuquerque Center
Tue 04:33:05 PM 34.2267 -110.9600 227° Southwest 325 374 22,800 -1,756 Descending Albuquerque Center
Tue 04:34:06 PM 34.1692 -111.0336 227° Southwest 310 357 21,000 -1,756 Descending Albuquerque Center
Tue 04:35:08 PM 34.1150 -111.1061 228° Southwest 296 341 19,200 -1,742 Descending Albuquerque Center
Tue 04:36:10 PM 34.0603 -111.1756 226° Southwest 289 333 17,400 -1,707 Descending Albuquerque Center
Tue 04:37:11 PM 34.0072 -111.2436 227° Southwest 281 323 15,700 -1,805 Descending Albuquerque Center
Tue 04:38:13 PM 33.9439 -111.3261 227° Southwest 278 320 13,700 -1,597 Descending Albuquerque Center
Tue 04:39:15 PM 33.8872 -111.3983 227° Southwest 291 335 12,400 -1,317 Descending Albuquerque Center
Tue 04:40:16 PM 33.8286 -111.4511 217° Southwest 263 303 11,000 -683 Descending Albuquerque Center
Tue 04:41:18 PM 33.7711 -111.4994 215° Southwest 253 291 11,000 -435 Level Albuquerque Center
Tue 04:42:20 PM 33.7156 -111.5478 216° Southwest 245 282 10,100 -1,113 Descending Albuquerque Center
Tue 04:43:22 PM 33.6572 -111.5967 215° Southwest 253 291 8,700 -1,366 Descending Albuquerque Center
Tue 04:44:23 PM 33.5978 -111.6481 216° Southwest 260 299 7,300 -1,366 Descending Albuquerque Center
Tue 04:45:25 PM 33.5392 -111.6969 215° Southwest 257 296 5,900 -1,113 Descending Albuquerque Center
Tue 04:46:27 PM 33.4828 -111.7439 215° Southwest 248 285 5,000 -829 Descending Albuquerque Center
Tue 04:47:28 PM 33.4417 -111.8117 234° Southwest 204 235 4,200 -780 Descending Albuquerque Center
Tue 04:48:30 PM 33.4408 -111.8778 269° West 196 226 3,400 -1,016 Descending Albuquerque Center
Tue 04:49:32 PM 33.4406 -111.9308 270° West 165 190 2,100 -1,016 Descending Albuquerque Center
Tue 04:50:34 PM 33.4400 -111.9875 269° West 153 176 1,300 -774 Descending Albuquerque Center
Tue 04:52:00 PM 33.4343 -112.0116 270° West  Level Estimated
Tue 04:59:00 PM 33.4343 -112.0116 90° East  Level Estimated

Login

Don't have an account? Register now (free) for customized features, flight alerts, and more!